sensor_id;sensor_type;location;lat;lon;timestamp;temperature;humidity
25732;DHT22;13585;50.864;4.406;2023-11-21T00:02:04;20.50;68.60
25732;DHT22;13585;50.864;4.406;2023-11-21T00:04:30;20.50;68.50
25732;DHT22;13585;50.864;4.406;2023-11-21T00:06:56;20.50;68.50
25732;DHT22;13585;50.864;4.406;2023-11-21T00:09:22;20.50;68.50
25732;DHT22;13585;50.864;4.406;2023-11-21T00:11:48;20.60;68.40
25732;DHT22;13585;50.864;4.406;2023-11-21T00:14:13;20.50;68.40
25732;DHT22;13585;50.864;4.406;2023-11-21T00:16:41;20.50;68.30
25732;DHT22;13585;50.864;4.406;2023-11-21T00:19:06;20.50;68.30
25732;DHT22;13585;50.864;4.406;2023-11-21T00:21:32;20.50;68.30
25732;DHT22;13585;50.864;4.406;2023-11-21T00:23:57;20.50;68.20
25732;DHT22;13585;50.864;4.406;2023-11-21T00:26:32;20.50;68.20
25732;DHT22;13585;50.864;4.406;2023-11-21T00:29:02;20.50;68.20
25732;DHT22;13585;50.864;4.406;2023-11-21T00:31:27;20.50;68.10
25732;DHT22;13585;50.864;4.406;2023-11-21T00:33:53;20.50;68.10
25732;DHT22;13585;50.864;4.406;2023-11-21T00:36:29;20.50;68.00
25732;DHT22;13585;50.864;4.406;2023-11-21T00:38:54;20.50;68.10
25732;DHT22;13585;50.864;4.406;2023-11-21T00:41:21;20.50;67.90
25732;DHT22;13585;50.864;4.406;2023-11-21T00:43:46;20.50;67.90
25732;DHT22;13585;50.864;4.406;2023-11-21T00:46:15;20.50;67.80
25732;DHT22;13585;50.864;4.406;2023-11-21T00:48:40;20.50;67.80
25732;DHT22;13585;50.864;4.406;2023-11-21T00:51:06;20.50;67.80
25732;DHT22;13585;50.864;4.406;2023-11-21T00:53:32;20.50;67.80
25732;DHT22;13585;50.864;4.406;2023-11-21T00:55:58;20.50;67.70
25732;DHT22;13585;50.864;4.406;2023-11-21T00:58:24;20.50;67.70
25732;DHT22;13585;50.864;4.406;2023-11-21T01:00:50;20.50;67.60
25732;DHT22;13585;50.864;4.406;2023-11-21T01:03:16;20.50;67.60
25732;DHT22;13585;50.864;4.406;2023-11-21T01:05:42;20.50;67.60
25732;DHT22;13585;50.864;4.406;2023-11-21T01:08:07;20.50;67.60
25732;DHT22;13585;50.864;4.406;2023-11-21T01:10:33;20.50;67.50
25732;DHT22;13585;50.864;4.406;2023-11-21T01:12:59;20.50;67.40
25732;DHT22;13585;50.864;4.406;2023-11-21T01:15:25;20.50;67.40
25732;DHT22;13585;50.864;4.406;2023-11-21T01:17:51;20.50;67.40
25732;DHT22;13585;50.864;4.406;2023-11-21T01:20:17;20.50;67.40
25732;DHT22;13585;50.864;4.406;2023-11-21T01:22:43;20.40;67.30
25732;DHT22;13585;50.864;4.406;2023-11-21T01:25:10;20.50;67.40
25732;DHT22;13585;50.864;4.406;2023-11-21T01:27:36;20.50;67.30
25732;DHT22;13585;50.864;4.406;2023-11-21T01:30:23;20.50;67.30
25732;DHT22;13585;50.864;4.406;2023-11-21T01:32:49;20.40;67.20
25732;DHT22;13585;50.864;4.406;2023-11-21T01:35:15;20.40;67.10
25732;DHT22;13585;50.864;4.406;2023-11-21T01:37:41;20.50;67.10
25732;DHT22;13585;50.864;4.406;2023-11-21T01:40:07;20.50;67.10
25732;DHT22;13585;50.864;4.406;2023-11-21T01:42:36;20.40;67.00
25732;DHT22;13585;50.864;4.406;2023-11-21T01:45:02;20.50;67.10
25732;DHT22;13585;50.864;4.406;2023-11-21T01:47:33;20.40;67.00
25732;DHT22;13585;50.864;4.406;2023-11-21T01:50:02;20.40;67.00
25732;DHT22;13585;50.864;4.406;2023-11-21T01:52:30;20.40;67.00
25732;DHT22;13585;50.864;4.406;2023-11-21T01:54:56;20.40;66.90
25732;DHT22;13585;50.864;4.406;2023-11-21T01:57:22;20.40;66.80
25732;DHT22;13585;50.864;4.406;2023-11-21T01:59:48;20.40;66.90
25732;DHT22;13585;50.864;4.406;2023-11-21T02:02:14;20.40;66.80
25732;DHT22;13585;50.864;4.406;2023-11-21T02:04:41;20.40;66.80
25732;DHT22;13585;50.864;4.406;2023-11-21T02:07:06;20.40;66.70
25732;DHT22;13585;50.864;4.406;2023-11-21T02:09:32;20.40;66.70
25732;DHT22;13585;50.864;4.406;2023-11-21T02:12:00;20.40;66.60
25732;DHT22;13585;50.864;4.406;2023-11-21T02:14:26;20.40;66.60
25732;DHT22;13585;50.864;4.406;2023-11-21T02:16:53;20.40;66.60
25732;DHT22;13585;50.864;4.406;2023-11-21T02:19:20;20.40;66.50
25732;DHT22;13585;50.864;4.406;2023-11-21T02:21:54;20.40;66.50
25732;DHT22;13585;50.864;4.406;2023-11-21T02:24:22;20.40;66.50
25732;DHT22;13585;50.864;4.406;2023-11-21T02:26:51;20.40;66.50
25732;DHT22;13585;50.864;4.406;2023-11-21T02:29:17;20.40;66.50
25732;DHT22;13585;50.864;4.406;2023-11-21T02:31:45;20.40;66.40
25732;DHT22;13585;50.864;4.406;2023-11-21T02:34:17;20.40;66.40
25732;DHT22;13585;50.864;4.406;2023-11-21T02:36:46;20.40;66.40
25732;DHT22;13585;50.864;4.406;2023-11-21T02:39:13;20.40;67.10
25732;DHT22;13585;50.864;4.406;2023-11-21T02:41:38;20.40;66.30
25732;DHT22;13585;50.864;4.406;2023-11-21T02:44:08;20.40;66.40
25732;DHT22;13585;50.864;4.406;2023-11-21T02:46:34;20.40;66.30
25732;DHT22;13585;50.864;4.406;2023-11-21T02:49:03;20.30;66.20
25732;DHT22;13585;50.864;4.406;2023-11-21T02:51:30;20.40;66.20
25732;DHT22;13585;50.864;4.406;2023-11-21T02:53:56;20.30;66.10
25732;DHT22;13585;50.864;4.406;2023-11-21T02:56:26;20.30;66.10
25732;DHT22;13585;50.864;4.406;2023-11-21T02:58:52;20.30;66.10
25732;DHT22;13585;50.864;4.406;2023-11-21T03:01:18;20.30;66.00
25732;DHT22;13585;50.864;4.406;2023-11-21T03:03:43;20.30;66.00
25732;DHT22;13585;50.864;4.406;2023-11-21T03:06:09;20.40;66.10
25732;DHT22;13585;50.864;4.406;2023-11-21T03:08:35;20.30;66.00
25732;DHT22;13585;50.864;4.406;2023-11-21T03:11:01;20.30;66.00
25732;DHT22;13585;50.864;4.406;2023-11-21T03:13:28;20.30;65.90
25732;DHT22;13585;50.864;4.406;2023-11-21T03:15:54;20.30;65.90
25732;DHT22;13585;50.864;4.406;2023-11-21T03:18:19;20.40;65.90
25732;DHT22;13585;50.864;4.406;2023-11-21T03:20:47;20.30;65.90
25732;DHT22;13585;50.864;4.406;2023-11-21T03:23:13;20.30;65.80
25732;DHT22;13585;50.864;4.406;2023-11-21T03:25:38;20.30;65.80
25732;DHT22;13585;50.864;4.406;2023-11-21T03:28:04;20.30;65.80
25732;DHT22;13585;50.864;4.406;2023-11-21T03:30:30;20.40;65.80
25732;DHT22;13585;50.864;4.406;2023-11-21T03:32:56;20.30;65.70
25732;DHT22;13585;50.864;4.406;2023-11-21T03:35:22;20.30;65.70
25732;DHT22;13585;50.864;4.406;2023-11-21T03:37:48;20.30;65.70
25732;DHT22;13585;50.864;4.406;2023-11-21T03:40:14;20.30;65.70
25732;DHT22;13585;50.864;4.406;2023-11-21T03:43:00;20.30;65.70
25732;DHT22;13585;50.864;4.406;2023-11-21T03:45:25;20.30;65.60
25732;DHT22;13585;50.864;4.406;2023-11-21T03:47:51;20.30;65.50
25732;DHT22;13585;50.864;4.406;2023-11-21T03:50:17;20.30;65.60
25732;DHT22;13585;50.864;4.406;2023-11-21T03:52:42;20.30;65.50
25732;DHT22;13585;50.864;4.406;2023-11-21T03:55:08;20.30;65.50
25732;DHT22;13585;50.864;4.406;2023-11-21T03:57:36;20.30;65.50
25732;DHT22;13585;50.864;4.406;2023-11-21T04:00:02;20.30;65.50
25732;DHT22;13585;50.864;4.406;2023-11-21T04:02:29;20.30;65.50
25732;DHT22;13585;50.864;4.406;2023-11-21T04:04:57;20.30;65.40
25732;DHT22;13585;50.864;4.406;2023-11-21T04:07:22;20.30;65.50
25732;DHT22;13585;50.864;4.406;2023-11-21T04:09:48;20.30;65.40
25732;DHT22;13585;50.864;4.406;2023-11-21T04:12:13;20.30;65.40
25732;DHT22;13585;50.864;4.406;2023-11-21T04:14:39;20.30;65.40
25732;DHT22;13585;50.864;4.406;2023-11-21T04:17:05;20.30;65.40
25732;DHT22;13585;50.864;4.406;2023-11-21T04:19:30;20.30;65.30
25732;DHT22;13585;50.864;4.406;2023-11-21T04:21:56;20.30;65.30
25732;DHT22;13585;50.864;4.406;2023-11-21T04:24:21;20.30;65.30
25732;DHT22;13585;50.864;4.406;2023-11-21T04:26:47;20.30;65.20
25732;DHT22;13585;50.864;4.406;2023-11-21T04:29:13;20.30;65.20
25732;DHT22;13585;50.864;4.406;2023-11-21T04:31:38;20.30;65.20
25732;DHT22;13585;50.864;4.406;2023-11-21T04:34:04;20.30;65.20
25732;DHT22;13585;50.864;4.406;2023-11-21T04:36:30;20.30;65.20
25732;DHT22;13585;50.864;4.406;2023-11-21T04:38:56;20.30;65.10
25732;DHT22;13585;50.864;4.406;2023-11-21T04:41:22;20.30;65.20
25732;DHT22;13585;50.864;4.406;2023-11-21T04:43:48;20.30;65.10
25732;DHT22;13585;50.864;4.406;2023-11-21T04:46:14;20.30;65.10
25732;DHT22;13585;50.864;4.406;2023-11-21T04:48:40;20.20;65.00
25732;DHT22;13585;50.864;4.406;2023-11-21T04:51:06;20.30;65.00
25732;DHT22;13585;50.864;4.406;2023-11-21T04:53:32;20.30;65.00
25732;DHT22;13585;50.864;4.406;2023-11-21T04:55:57;20.30;65.00
25732;DHT22;13585;50.864;4.406;2023-11-21T04:58:23;20.30;65.00
25732;DHT22;13585;50.864;4.406;2023-11-21T05:00:49;20.20;64.90
25732;DHT22;13585;50.864;4.406;2023-11-21T05:03:15;20.20;64.90
25732;DHT22;13585;50.864;4.406;2023-11-21T05:05:40;20.20;65.10
25732;DHT22;13585;50.864;4.406;2023-11-21T05:08:06;20.20;64.90
25732;DHT22;13585;50.864;4.406;2023-11-21T05:10:31;20.30;64.90
25732;DHT22;13585;50.864;4.406;2023-11-21T05:12:57;20.30;64.90
25732;DHT22;13585;50.864;4.406;2023-11-21T05:15:24;20.30;64.90
25732;DHT22;13585;50.864;4.406;2023-11-21T05:17:50;20.20;64.80
25732;DHT22;13585;50.864;4.406;2023-11-21T05:20:17;20.30;64.80
25732;DHT22;13585;50.864;4.406;2023-11-21T05:22:49;20.20;64.80
25732;DHT22;13585;50.864;4.406;2023-11-21T05:25:15;20.30;64.80
25732;DHT22;13585;50.864;4.406;2023-11-21T05:27:40;20.20;64.70
25732;DHT22;13585;50.864;4.406;2023-11-21T05:30:07;20.20;64.70
25732;DHT22;13585;50.864;4.406;2023-11-21T05:32:37;20.20;64.70
25732;DHT22;13585;50.864;4.406;2023-11-21T05:35:03;20.20;64.70
25732;DHT22;13585;50.864;4.406;2023-11-21T05:37:29;20.20;64.70
25732;DHT22;13585;50.864;4.406;2023-11-21T05:39:57;20.20;64.70
25732;DHT22;13585;50.864;4.406;2023-11-21T05:42:23;20.20;64.70
25732;DHT22;13585;50.864;4.406;2023-11-21T05:44:49;20.20;64.80
25732;DHT22;13585;50.864;4.406;2023-11-21T05:47:15;20.20;64.60
25732;DHT22;13585;50.864;4.406;2023-11-21T05:49:40;20.20;64.60
25732;DHT22;13585;50.864;4.406;2023-11-21T05:52:06;20.20;64.60
25732;DHT22;13585;50.864;4.406;2023-11-21T05:54:32;20.20;64.50
25732;DHT22;13585;50.864;4.406;2023-11-21T05:56:58;20.20;64.50
25732;DHT22;13585;50.864;4.406;2023-11-21T05:59:24;20.20;64.50
25732;DHT22;13585;50.864;4.406;2023-11-21T06:01:50;20.20;64.50
25732;DHT22;13585;50.864;4.406;2023-11-21T06:04:15;20.20;64.40
25732;DHT22;13585;50.864;4.406;2023-11-21T06:06:41;20.20;64.40
25732;DHT22;13585;50.864;4.406;2023-11-21T06:09:07;20.20;64.40
25732;DHT22;13585;50.864;4.406;2023-11-21T06:11:37;20.20;64.50
25732;DHT22;13585;50.864;4.406;2023-11-21T06:14:03;20.20;64.40
25732;DHT22;13585;50.864;4.406;2023-11-21T06:16:28;20.20;64.40
25732;DHT22;13585;50.864;4.406;2023-11-21T06:18:54;20.20;64.30
25732;DHT22;13585;50.864;4.406;2023-11-21T06:21:20;20.20;64.30
25732;DHT22;13585;50.864;4.406;2023-11-21T06:23:45;20.20;64.30
25732;DHT22;13585;50.864;4.406;2023-11-21T06:26:11;20.20;64.30
25732;DHT22;13585;50.864;4.406;2023-11-21T06:28:38;20.20;64.30
25732;DHT22;13585;50.864;4.406;2023-11-21T06:31:04;20.20;64.30
25732;DHT22;13585;50.864;4.406;2023-11-21T06:33:33;20.20;64.40
25732;DHT22;13585;50.864;4.406;2023-11-21T06:35:59;20.20;64.40
25732;DHT22;13585;50.864;4.406;2023-11-21T06:38:25;20.20;64.40
25732;DHT22;13585;50.864;4.406;2023-11-21T06:40:53;20.10;64.40
25732;DHT22;13585;50.864;4.406;2023-11-21T06:43:20;20.20;64.40
25732;DHT22;13585;50.864;4.406;2023-11-21T06:45:47;20.20;64.50
25732;DHT22;13585;50.864;4.406;2023-11-21T06:48:13;20.20;64.50
25732;DHT22;13585;50.864;4.406;2023-11-21T06:50:38;20.20;64.60
25732;DHT22;13585;50.864;4.406;2023-11-21T06:53:04;20.20;64.40
25732;DHT22;13585;50.864;4.406;2023-11-21T06:55:32;20.20;65.20
25732;DHT22;13585;50.864;4.406;2023-11-21T06:57:58;20.20;64.50
25732;DHT22;13585;50.864;4.406;2023-11-21T07:00:25;20.20;64.40
25732;DHT22;13585;50.864;4.406;2023-11-21T07:02:53;20.20;64.40
25732;DHT22;13585;50.864;4.406;2023-11-21T07:05:20;20.20;64.50
25732;DHT22;13585;50.864;4.406;2023-11-21T07:07:47;20.20;64.50
25732;DHT22;13585;50.864;4.406;2023-11-21T07:10:14;20.20;64.50
25732;DHT22;13585;50.864;4.406;2023-11-21T07:12:40;20.20;64.50
25732;DHT22;13585;50.864;4.406;2023-11-21T07:15:06;20.20;64.40
25732;DHT22;13585;50.864;4.406;2023-11-21T07:17:35;20.20;64.50
25732;DHT22;13585;50.864;4.406;2023-11-21T07:20:02;20.20;64.40
25732;DHT22;13585;50.864;4.406;2023-11-21T07:22:28;20.20;64.50
25732;DHT22;13585;50.864;4.406;2023-11-21T07:24:53;20.20;64.50
25732;DHT22;13585;50.864;4.406;2023-11-21T07:27:19;20.20;64.50
25732;DHT22;13585;50.864;4.406;2023-11-21T07:29:45;20.20;64.50
25732;DHT22;13585;50.864;4.406;2023-11-21T07:32:11;20.20;64.50
25732;DHT22;13585;50.864;4.406;2023-11-21T07:34:36;20.20;64.50
25732;DHT22;13585;50.864;4.406;2023-11-21T07:37:02;20.20;64.50
25732;DHT22;13585;50.864;4.406;2023-11-21T07:39:28;20.20;64.50
25732;DHT22;13585;50.864;4.406;2023-11-21T07:41:55;20.20;64.50
25732;DHT22;13585;50.864;4.406;2023-11-21T07:44:21;20.20;64.60
25732;DHT22;13585;50.864;4.406;2023-11-21T07:46:47;20.20;64.50
25732;DHT22;13585;50.864;4.406;2023-11-21T07:49:13;20.20;64.50
25732;DHT22;13585;50.864;4.406;2023-11-21T07:51:46;20.20;64.50
25732;DHT22;13585;50.864;4.406;2023-11-21T07:54:12;20.20;64.50
25732;DHT22;13585;50.864;4.406;2023-11-21T07:56:37;20.20;64.50
25732;DHT22;13585;50.864;4.406;2023-11-21T07:59:03;20.20;64.50
25732;DHT22;13585;50.864;4.406;2023-11-21T08:01:29;20.20;64.50
25732;DHT22;13585;50.864;4.406;2023-11-21T08:03:55;20.20;64.50
25732;DHT22;13585;50.864;4.406;2023-11-21T08:06:24;20.20;64.60
25732;DHT22;13585;50.864;4.406;2023-11-21T08:08:51;20.20;64.60
25732;DHT22;13585;50.864;4.406;2023-11-21T08:11:16;20.20;64.70
25732;DHT22;13585;50.864;4.406;2023-11-21T08:13:42;20.20;64.60
25732;DHT22;13585;50.864;4.406;2023-11-21T08:16:07;20.20;64.70
25732;DHT22;13585;50.864;4.406;2023-11-21T08:18:33;20.20;64.70
25732;DHT22;13585;50.864;4.406;2023-11-21T08:20:59;20.20;64.70
25732;DHT22;13585;50.864;4.406;2023-11-21T08:23:26;20.20;64.80
25732;DHT22;13585;50.864;4.406;2023-11-21T08:25:54;20.20;64.70
25732;DHT22;13585;50.864;4.406;2023-11-21T08:33:35;20.20;64.80
25732;DHT22;13585;50.864;4.406;2023-11-21T08:36:06;20.20;64.80
25732;DHT22;13585;50.864;4.406;2023-11-21T08:38:48;20.20;64.80
25732;DHT22;13585;50.864;4.406;2023-11-21T08:41:20;20.20;64.80
25732;DHT22;13585;50.864;4.406;2023-11-21T08:43:51;20.20;64.80
25732;DHT22;13585;50.864;4.406;2023-11-21T08:46:32;20.30;64.90
25732;DHT22;13585;50.864;4.406;2023-11-21T08:51:29;20.20;64.80
25732;DHT22;13585;50.864;4.406;2023-11-21T08:53:55;20.20;64.80
25732;DHT22;13585;50.864;4.406;2023-11-21T08:56:28;20.20;64.80
25732;DHT22;13585;50.864;4.406;2023-11-21T08:58:59;20.20;64.80
25732;DHT22;13585;50.864;4.406;2023-11-21T09:07:02;20.20;64.70
25732;DHT22;13585;50.864;4.406;2023-11-21T09:12:35;20.20;64.80
25732;DHT22;13585;50.864;4.406;2023-11-21T09:15:11;20.20;64.80
25732;DHT22;13585;50.864;4.406;2023-11-21T09:17:37;20.30;64.80
25732;DHT22;13585;50.864;4.406;2023-11-21T09:20:15;20.20;64.70
25732;DHT22;13585;50.864;4.406;2023-11-21T09:23:00;20.20;64.80
25732;DHT22;13585;50.864;4.406;2023-11-21T09:25:35;20.20;65.60
25732;DHT22;13585;50.864;4.406;2023-11-21T09:28:03;20.20;64.70
25732;DHT22;13585;50.864;4.406;2023-11-21T09:30:41;20.20;64.70
25732;DHT22;13585;50.864;4.406;2023-11-21T09:33:16;20.20;64.80
25732;DHT22;13585;50.864;4.406;2023-11-21T09:35:48;20.20;64.70
25732;DHT22;13585;50.864;4.406;2023-11-21T09:38:14;20.20;64.70
25732;DHT22;13585;50.864;4.406;2023-11-21T09:40:40;20.20;64.70
25732;DHT22;13585;50.864;4.406;2023-11-21T09:43:15;20.20;64.70
25732;DHT22;13585;50.864;4.406;2023-11-21T09:48:16;20.20;64.70
25732;DHT22;13585;50.864;4.406;2023-11-21T09:50:58;20.20;64.70
25732;DHT22;13585;50.864;4.406;2023-11-21T09:53:29;20.10;64.70
25732;DHT22;13585;50.864;4.406;2023-11-21T09:56:02;20.20;64.70
25732;DHT22;13585;50.864;4.406;2023-11-21T10:01:12;20.30;64.30
25732;DHT22;13585;50.864;4.406;2023-11-21T10:03:39;20.20;64.40
25732;DHT22;13585;50.864;4.406;2023-11-21T10:06:08;20.20;64.50
25732;DHT22;13585;50.864;4.406;2023-11-21T10:11:25;20.10;64.60
25732;DHT22;13585;50.864;4.406;2023-11-21T10:13:55;20.20;64.70
25732;DHT22;13585;50.864;4.406;2023-11-21T10:16:38;20.20;64.70
25732;DHT22;13585;50.864;4.406;2023-11-21T10:19:05;20.30;64.70
25732;DHT22;13585;50.864;4.406;2023-11-21T10:21:46;20.20;64.60
25732;DHT22;13585;50.864;4.406;2023-11-21T10:24:22;20.20;64.60
25732;DHT22;13585;50.864;4.406;2023-11-21T10:26:52;20.10;64.60
25732;DHT22;13585;50.864;4.406;2023-11-21T10:29:19;20.20;64.60
25732;DHT22;13585;50.864;4.406;2023-11-21T10:31:49;20.20;65.40
25732;DHT22;13585;50.864;4.406;2023-11-21T10:34:20;20.20;64.60
25732;DHT22;13585;50.864;4.406;2023-11-21T10:36:46;20.20;64.70
25732;DHT22;13585;50.864;4.406;2023-11-21T10:39:17;20.10;64.60
25732;DHT22;13585;50.864;4.406;2023-11-21T10:41:44;20.10;64.60
25732;DHT22;13585;50.864;4.406;2023-11-21T10:44:13;20.20;64.60
25732;DHT22;13585;50.864;4.406;2023-11-21T10:46:40;20.20;64.60
25732;DHT22;13585;50.864;4.406;2023-11-21T10:49:08;20.20;64.60
25732;DHT22;13585;50.864;4.406;2023-11-21T10:51:37;20.20;64.70
25732;DHT22;13585;50.864;4.406;2023-11-21T10:54:03;20.20;64.70
25732;DHT22;13585;50.864;4.406;2023-11-21T10:56:29;20.20;64.70
25732;DHT22;13585;50.864;4.406;2023-11-21T10:58:56;20.20;64.70
25732;DHT22;13585;50.864;4.406;2023-11-21T11:01:23;20.30;64.70
25732;DHT22;13585;50.864;4.406;2023-11-21T11:04:06;20.20;64.70
25732;DHT22;13585;50.864;4.406;2023-11-21T11:06:35;20.20;64.70
25732;DHT22;13585;50.864;4.406;2023-11-21T11:09:01;20.20;64.60
25732;DHT22;13585;50.864;4.406;2023-11-21T11:11:29;20.10;64.50
25732;DHT22;13585;50.864;4.406;2023-11-21T11:13:55;20.20;64.70
25732;DHT22;13585;50.864;4.406;2023-11-21T11:16:33;20.20;64.70
25732;DHT22;13585;50.864;4.406;2023-11-21T11:18:59;20.20;64.70
25732;DHT22;13585;50.864;4.406;2023-11-21T11:37:14;20.20;64.50
25732;DHT22;13585;50.864;4.406;2023-11-21T11:39:46;20.20;64.60
25732;DHT22;13585;50.864;4.406;2023-11-21T11:42:15;20.30;64.70
25732;DHT22;13585;50.864;4.406;2023-11-21T11:44:48;20.10;64.70
25732;DHT22;13585;50.864;4.406;2023-11-21T11:47:30;20.10;64.80
25732;DHT22;13585;50.864;4.406;2023-11-21T11:50:14;20.10;65.00
25732;DHT22;13585;50.864;4.406;2023-11-21T12:02:54;20.10;65.40
25732;DHT22;13585;50.864;4.406;2023-11-21T12:05:38;20.10;65.50
25732;DHT22;13585;50.864;4.406;2023-11-21T12:11:46;20.00;65.60
25732;DHT22;13585;50.864;4.406;2023-11-21T12:14:28;20.20;65.60
25732;DHT22;13585;50.864;4.406;2023-11-21T12:16:54;20.20;66.00
25732;DHT22;13585;50.864;4.406;2023-11-21T12:19:29;20.10;65.80
25732;DHT22;13585;50.864;4.406;2023-11-21T12:22:10;20.10;66.00
25732;DHT22;13585;50.864;4.406;2023-11-21T12:24:56;20.10;66.10
25732;DHT22;13585;50.864;4.406;2023-11-21T12:30:08;20.10;66.20
25732;DHT22;13585;50.864;4.406;2023-11-21T12:32:39;20.20;66.50
25732;DHT22;13585;50.864;4.406;2023-11-21T12:35:07;20.20;66.60
25732;DHT22;13585;50.864;4.406;2023-11-21T12:38:09;20.20;66.60
25732;DHT22;13585;50.864;4.406;2023-11-21T12:40:44;20.20;66.90
25732;DHT22;13585;50.864;4.406;2023-11-21T12:43:17;20.10;66.80
25732;DHT22;13585;50.864;4.406;2023-11-21T12:45:46;20.20;66.90
25732;DHT22;13585;50.864;4.406;2023-11-21T12:48:23;20.20;66.90
25732;DHT22;13585;50.864;4.406;2023-11-21T12:53:23;20.10;67.00
25732;DHT22;13585;50.864;4.406;2023-11-21T12:55:49;20.20;67.00
25732;DHT22;13585;50.864;4.406;2023-11-21T13:01:08;20.20;67.20
25732;DHT22;13585;50.864;4.406;2023-11-21T13:04:01;20.10;67.30
25732;DHT22;13585;50.864;4.406;2023-11-21T13:06:33;20.20;67.20
25732;DHT22;13585;50.864;4.406;2023-11-21T13:09:04;20.20;67.20
25732;DHT22;13585;50.864;4.406;2023-11-21T13:11:37;20.20;67.10
25732;DHT22;13585;50.864;4.406;2023-11-21T13:14:02;20.20;67.20
25732;DHT22;13585;50.864;4.406;2023-11-21T13:16:35;20.20;67.20
25732;DHT22;13585;50.864;4.406;2023-11-21T13:19:03;20.20;67.20
25732;DHT22;13585;50.864;4.406;2023-11-21T13:21:31;20.20;67.20
25732;DHT22;13585;50.864;4.406;2023-11-21T13:24:09;20.20;67.20
25732;DHT22;13585;50.864;4.406;2023-11-21T13:26:35;20.20;67.20
25732;DHT22;13585;50.864;4.406;2023-11-21T13:31:33;20.10;67.10
25732;DHT22;13585;50.864;4.406;2023-11-21T13:42:12;20.20;67.00
25732;DHT22;13585;50.864;4.406;2023-11-21T13:44:39;20.10;67.00
25732;DHT22;13585;50.864;4.406;2023-11-21T13:47:18;20.20;67.10
25732;DHT22;13585;50.864;4.406;2023-11-21T13:49:44;20.20;67.20
25732;DHT22;13585;50.864;4.406;2023-11-21T13:52:10;20.20;67.10
25732;DHT22;13585;50.864;4.406;2023-11-21T13:54:40;20.20;67.20
25732;DHT22;13585;50.864;4.406;2023-11-21T13:57:21;20.20;67.00
25732;DHT22;13585;50.864;4.406;2023-11-21T14:02:12;20.20;66.90
25732;DHT22;13585;50.864;4.406;2023-11-21T14:04:56;20.20;67.00
25732;DHT22;13585;50.864;4.406;2023-11-21T14:07:26;20.10;66.90
25732;DHT22;13585;50.864;4.406;2023-11-21T14:10:13;20.10;66.80
25732;DHT22;13585;50.864;4.406;2023-11-21T14:12:39;20.20;66.90
25732;DHT22;13585;50.864;4.406;2023-11-21T14:15:20;20.20;66.80
25732;DHT22;13585;50.864;4.406;2023-11-21T14:20:20;20.10;66.70
25732;DHT22;13585;50.864;4.406;2023-11-21T14:23:01;20.10;66.80
25732;DHT22;13585;50.864;4.406;2023-11-21T14:25:59;20.10;66.80
25732;DHT22;13585;50.864;4.406;2023-11-21T14:28:26;20.10;66.80
25732;DHT22;13585;50.864;4.406;2023-11-21T14:31:04;20.20;66.60
25732;DHT22;13585;50.864;4.406;2023-11-21T14:33:42;20.10;66.70
25732;DHT22;13585;50.864;4.406;2023-11-21T14:36:20;20.10;66.70
25732;DHT22;13585;50.864;4.406;2023-11-21T14:38:45;20.10;66.70
25732;DHT22;13585;50.864;4.406;2023-11-21T14:41:11;20.10;66.60
25732;DHT22;13585;50.864;4.406;2023-11-21T14:43:38;20.10;66.60
25732;DHT22;13585;50.864;4.406;2023-11-21T14:51:20;20.10;66.50
25732;DHT22;13585;50.864;4.406;2023-11-21T14:54:11;20.10;66.50
25732;DHT22;13585;50.864;4.406;2023-11-21T14:59:14;20.10;66.40
25732;DHT22;13585;50.864;4.406;2023-11-21T15:01:42;20.10;66.40
25732;DHT22;13585;50.864;4.406;2023-11-21T15:04:34;20.00;66.30
25732;DHT22;13585;50.864;4.406;2023-11-21T15:07:10;20.10;66.40
25732;DHT22;13585;50.864;4.406;2023-11-21T15:09:39;20.10;66.30
25732;DHT22;13585;50.864;4.406;2023-11-21T15:12:09;20.10;66.30
25732;DHT22;13585;50.864;4.406;2023-11-21T15:15:18;20.10;66.20
25732;DHT22;13585;50.864;4.406;2023-11-21T15:17:56;20.10;66.20
25732;DHT22;13585;50.864;4.406;2023-11-21T15:20:21;20.10;66.20
25732;DHT22;13585;50.864;4.406;2023-11-21T15:22:48;20.10;66.20
25732;DHT22;13585;50.864;4.406;2023-11-21T15:25:13;20.10;66.20
25732;DHT22;13585;50.864;4.406;2023-11-21T15:27:39;20.10;66.20
25732;DHT22;13585;50.864;4.406;2023-11-21T15:30:07;20.10;66.20
25732;DHT22;13585;50.864;4.406;2023-11-21T15:32:34;20.10;66.10
25732;DHT22;13585;50.864;4.406;2023-11-21T15:34:59;20.10;66.20
25732;DHT22;13585;50.864;4.406;2023-11-21T15:37:28;20.10;66.10
25732;DHT22;13585;50.864;4.406;2023-11-21T15:39:54;20.10;66.10
25732;DHT22;13585;50.864;4.406;2023-11-21T15:42:20;20.10;66.80
25732;DHT22;13585;50.864;4.406;2023-11-21T15:44:57;20.10;66.00
25732;DHT22;13585;50.864;4.406;2023-11-21T15:47:23;20.10;66.10
25732;DHT22;13585;50.864;4.406;2023-11-21T15:49:49;20.10;66.00
25732;DHT22;13585;50.864;4.406;2023-11-21T15:52:16;20.10;66.00
25732;DHT22;13585;50.864;4.406;2023-11-21T15:54:42;20.10;65.90
25732;DHT22;13585;50.864;4.406;2023-11-21T15:57:13;20.10;65.90
25732;DHT22;13585;50.864;4.406;2023-11-21T15:59:42;20.10;65.90
25732;DHT22;13585;50.864;4.406;2023-11-21T16:02:08;20.10;65.90
25732;DHT22;13585;50.864;4.406;2023-11-21T16:04:36;20.10;65.90
25732;DHT22;13585;50.864;4.406;2023-11-21T16:07:08;20.10;65.80
25732;DHT22;13585;50.864;4.406;2023-11-21T16:09:35;20.10;65.90
25732;DHT22;13585;50.864;4.406;2023-11-21T16:12:04;20.10;66.60
25732;DHT22;13585;50.864;4.406;2023-11-21T16:14:33;20.10;65.80
25732;DHT22;13585;50.864;4.406;2023-11-21T16:17:29;20.10;65.80
25732;DHT22;13585;50.864;4.406;2023-11-21T16:19:55;20.10;65.90
25732;DHT22;13585;50.864;4.406;2023-11-21T16:22:24;20.10;65.70
25732;DHT22;13585;50.864;4.406;2023-11-21T16:24:53;20.10;65.80
25732;DHT22;13585;50.864;4.406;2023-11-21T16:27:28;20.10;65.70
25732;DHT22;13585;50.864;4.406;2023-11-21T16:30:02;20.10;65.50
25732;DHT22;13585;50.864;4.406;2023-11-21T16:32:29;20.10;65.70
25732;DHT22;13585;50.864;4.406;2023-11-21T16:34:59;20.10;65.70
25732;DHT22;13585;50.864;4.406;2023-11-21T16:37:27;20.00;65.70
25732;DHT22;13585;50.864;4.406;2023-11-21T16:39:54;20.10;65.90
25732;DHT22;13585;50.864;4.406;2023-11-21T16:42:19;20.10;66.00
25732;DHT22;13585;50.864;4.406;2023-11-21T16:44:54;20.10;66.10
25732;DHT22;13585;50.864;4.406;2023-11-21T16:47:32;20.00;66.10
25732;DHT22;13585;50.864;4.406;2023-11-21T16:50:08;20.00;66.20
25732;DHT22;13585;50.864;4.406;2023-11-21T16:52:41;20.00;66.30
25732;DHT22;13585;50.864;4.406;2023-11-21T16:55:07;20.10;66.70
25732;DHT22;13585;50.864;4.406;2023-11-21T16:57:42;20.10;66.70
25732;DHT22;13585;50.864;4.406;2023-11-21T17:00:07;20.10;66.90
25732;DHT22;13585;50.864;4.406;2023-11-21T17:02:42;20.10;66.90
25732;DHT22;13585;50.864;4.406;2023-11-21T17:05:10;20.10;66.90
25732;DHT22;13585;50.864;4.406;2023-11-21T17:07:36;20.10;67.10